createdAt,value
2019-05-26T00:00:27.871Z,12.07
2019-05-26T00:01:27.847Z,12.02
2019-05-26T00:02:27.836Z,12.06
2019-05-26T00:03:27.825Z,12.07
2019-05-26T00:04:27.813Z,12.03
2019-05-26T00:05:27.817Z,12.09
2019-05-26T00:06:27.839Z,12.10
2019-05-26T00:07:30.728Z,11.99
2019-05-26T00:08:27.766Z,12.09
2019-05-26T00:09:27.759Z,11.99
2019-05-26T00:10:27.757Z,12.03
2019-05-26T00:11:27.761Z,12.00
2019-05-26T00:12:27.753Z,12.09
2019-05-26T00:13:27.713Z,12.02
2019-05-26T00:14:27.703Z,12.00
2019-05-26T00:15:27.692Z,11.99
2019-05-26T00:16:27.679Z,12.02
2019-05-26T00:17:27.674Z,12.00
2019-05-26T00:18:27.693Z,11.86
2019-05-26T00:19:27.650Z,11.88
2019-05-26T00:20:27.635Z,11.91
2019-05-26T00:21:27.625Z,11.91
2019-05-26T00:22:27.611Z,11.90
2019-05-26T00:23:27.600Z,11.87
2019-05-26T00:24:27.602Z,11.87
2019-05-26T00:25:27.583Z,11.88
2019-05-26T00:26:27.573Z,11.81
2019-05-26T00:27:27.556Z,11.84
2019-05-26T00:28:27.549Z,11.83
2019-05-26T00:29:27.549Z,11.87
2019-05-26T00:30:27.522Z,11.83
2019-05-26T00:31:27.520Z,11.80
2019-05-26T00:32:27.505Z,11.80
2019-05-26T00:33:27.489Z,11.77
2019-05-26T00:34:27.489Z,11.77
2019-05-26T00:35:27.467Z,11.88
2019-05-26T00:36:27.456Z,11.87
2019-05-26T00:37:27.462Z,11.78
2019-05-26T00:38:27.433Z,11.83
2019-05-26T00:39:27.441Z,11.73
2019-05-26T00:40:27.409Z,11.80
2019-05-26T00:41:27.401Z,11.72
2019-05-26T00:42:27.389Z,11.72
2019-05-26T00:43:27.383Z,11.65
2019-05-26T00:44:27.366Z,11.68
2019-05-26T00:45:27.371Z,11.66
2019-05-26T00:46:27.346Z,11.68
2019-05-26T00:47:27.335Z,11.62
2019-05-26T00:48:27.321Z,11.68
2019-05-26T00:49:27.321Z,11.54
2019-05-26T00:50:27.314Z,11.60
2019-05-26T00:51:27.287Z,11.57
2019-05-26T00:52:27.277Z,11.48
2019-05-26T00:53:27.267Z,11.48
2019-05-26T00:54:27.257Z,11.48
2019-05-26T00:55:27.269Z,11.44
2019-05-26T00:56:27.248Z,11.41
2019-05-26T00:57:27.222Z,11.40
2019-05-26T00:58:27.215Z,11.37
2019-05-26T00:59:27.205Z,11.26
2019-05-26T01:00:27.189Z,11.40
2019-05-26T01:01:27.191Z,11.43
2019-05-26T01:02:27.183Z,11.43
2019-05-26T01:03:27.158Z,11.40
2019-05-26T01:04:27.142Z,11.41
2019-05-26T01:05:27.134Z,11.44
2019-05-26T01:06:27.124Z,11.43
2019-05-26T01:07:27.119Z,11.47
2019-05-26T01:08:27.111Z,11.54
2019-05-26T01:09:27.104Z,11.47
2019-05-26T01:10:27.077Z,11.48
2019-05-26T01:11:27.065Z,11.50
2019-05-26T01:12:27.054Z,11.51
2019-05-26T01:13:27.090Z,11.45
2019-05-26T01:14:27.032Z,11.43
2019-05-26T01:15:27.022Z,11.36
2019-05-26T01:16:27.008Z,11.37
2019-05-26T01:17:26.998Z,11.43
2019-05-26T01:18:26.989Z,11.41
2019-05-26T01:19:27.008Z,11.36
2019-05-26T01:20:26.983Z,11.41
2019-05-26T01:21:26.955Z,11.40
2019-05-26T01:22:26.959Z,11.41
2019-05-26T01:23:26.989Z,11.40
2019-05-26T01:24:26.922Z,11.43
2019-05-26T01:25:26.915Z,11.40
2019-05-26T01:26:26.916Z,11.41
2019-05-26T01:27:26.892Z,11.32
2019-05-26T01:28:26.885Z,11.37
2019-05-26T01:29:26.866Z,11.40
2019-05-26T01:30:26.852Z,11.44
2019-05-26T01:31:26.863Z,11.41
2019-05-26T01:32:26.840Z,11.29
2019-05-26T01:33:26.818Z,11.43
2019-05-26T01:34:26.812Z,11.26
2019-05-26T01:35:26.796Z,11.33
2019-05-26T01:36:26.787Z,11.27
2019-05-26T01:37:26.796Z,11.27
2019-05-26T01:38:26.789Z,11.19
2019-05-26T01:39:26.751Z,11.25
2019-05-26T01:40:26.739Z,11.22
2019-05-26T01:41:26.731Z,11.23
2019-05-26T01:42:26.716Z,11.23
2019-05-26T01:43:26.727Z,11.19
2019-05-26T01:44:26.703Z,11.19
2019-05-26T01:45:26.688Z,11.17
2019-05-26T01:46:26.673Z,11.18
2019-05-26T01:47:26.664Z,11.15
2019-05-26T01:48:26.652Z,11.11
2019-05-26T01:49:26.680Z,11.08
2019-05-26T01:50:26.637Z,11.15
2019-05-26T01:51:26.616Z,11.08
2019-05-26T01:52:26.606Z,11.18
2019-05-26T01:53:26.599Z,11.19
2019-05-26T01:54:26.598Z,11.11
2019-05-26T01:55:26.576Z,11.19
2019-05-26T01:56:26.582Z,11.11
2019-05-26T01:57:26.565Z,11.12
2019-05-26T01:58:26.550Z,11.10
2019-05-26T01:59:26.529Z,11.05
2019-05-26T02:00:26.535Z,11.07
2019-05-26T02:01:26.508Z,11.10
2019-05-26T02:02:26.507Z,11.19
2019-05-26T02:03:26.484Z,11.11
2019-05-26T02:04:26.471Z,11.19
2019-05-26T02:05:26.461Z,11.23
2019-05-26T02:06:26.479Z,11.23
2019-05-26T02:07:26.439Z,11.19
2019-05-26T02:08:38.894Z,11.29
2019-05-26T02:09:27.442Z,11.37
2019-05-26T02:10:26.405Z,11.27
2019-05-26T02:11:26.403Z,11.27
2019-05-26T02:12:26.383Z,11.32
2019-05-26T02:13:26.375Z,11.33
2019-05-26T02:14:26.389Z,11.30
2019-05-26T02:15:26.443Z,11.29
2019-05-26T02:16:26.341Z,11.18
2019-05-26T02:17:26.331Z,11.15
2019-05-26T02:18:26.315Z,11.27
2019-05-26T02:19:26.304Z,11.41
2019-05-26T02:20:26.327Z,11.37
2019-05-26T02:21:26.313Z,11.32
2019-05-26T02:22:26.277Z,11.41
2019-05-26T02:23:26.261Z,11.41
2019-05-26T02:24:26.251Z,11.40
2019-05-26T02:25:26.246Z,11.44
2019-05-26T02:26:26.251Z,11.50
2019-05-26T02:27:26.233Z,11.41
2019-05-26T02:28:26.207Z,11.41
2019-05-26T02:29:26.202Z,11.35
2019-05-26T02:30:26.188Z,11.35
2019-05-26T02:31:26.173Z,11.40
2019-05-26T02:32:26.183Z,11.23
2019-05-26T02:33:26.154Z,11.32
2019-05-26T02:34:26.142Z,11.23
2019-05-26T02:35:26.129Z,11.23
2019-05-26T02:36:26.119Z,11.18
2019-05-26T02:37:26.116Z,11.19
2019-05-26T02:38:34.751Z,11.23
2019-05-26T02:39:26.089Z,11.19
2019-05-26T02:40:26.124Z,11.15
2019-05-26T02:41:26.071Z,11.11
2019-05-26T02:42:26.056Z,11.07
2019-05-26T02:43:26.058Z,11.17
2019-05-26T02:44:26.030Z,11.15
2019-05-26T02:45:26.024Z,11.08
2019-05-26T02:46:26.020Z,11.14
2019-05-26T02:47:26.003Z,11.14
2019-05-26T02:48:25.993Z,11.11
2019-05-26T02:49:26.004Z,11.15
2019-05-26T02:50:25.979Z,11.19
2019-05-26T02:51:25.972Z,11.18
2019-05-26T02:52:25.945Z,11.25
2019-05-26T02:53:25.931Z,11.17
2019-05-26T02:54:25.945Z,11.25
2019-05-26T02:55:25.925Z,11.32
2019-05-26T02:56:25.905Z,11.41
2019-05-26T02:57:25.900Z,11.33
2019-05-26T02:58:25.913Z,11.18
2019-05-26T02:59:25.869Z,11.17
2019-05-26T03:00:25.857Z,11.25
2019-05-26T03:01:25.857Z,11.23
2019-05-26T03:02:25.849Z,11.22
2019-05-26T03:03:25.824Z,11.18
2019-05-26T03:04:25.834Z,11.25
2019-05-26T03:05:25.805Z,11.19
2019-05-26T03:06:25.787Z,11.15
2019-05-26T03:07:25.789Z,11.18
2019-05-26T03:08:25.782Z,11.14
2019-05-26T03:09:25.760Z,11.15
2019-05-26T03:10:25.741Z,11.15
2019-05-26T03:11:25.740Z,11.14
2019-05-26T03:12:25.725Z,11.11
2019-05-26T03:13:25.722Z,11.15
2019-05-26T03:14:25.729Z,11.11
2019-05-26T03:15:25.693Z,11.18
2019-05-26T03:16:25.677Z,11.22
2019-05-26T03:17:25.672Z,11.25
2019-05-26T03:18:25.650Z,11.17
2019-05-26T03:19:25.656Z,11.18
2019-05-26T03:20:25.659Z,11.19
2019-05-26T03:21:25.620Z,11.27
2019-05-26T03:22:25.612Z,11.32
2019-05-26T03:23:25.598Z,11.29
2019-05-26T03:24:25.598Z,11.33
2019-05-26T03:25:25.597Z,11.40
2019-05-26T03:26:25.566Z,11.40
2019-05-26T03:27:25.574Z,11.36
2019-05-26T03:28:25.549Z,11.44
2019-05-26T03:29:25.559Z,11.43
2019-05-26T03:30:25.528Z,11.36
2019-05-26T03:31:25.542Z,11.40
2019-05-26T03:32:25.503Z,11.32
2019-05-26T03:33:25.511Z,11.40
2019-05-26T03:34:25.481Z,11.41
2019-05-26T03:35:25.486Z,11.45
2019-05-26T03:36:25.455Z,11.43
2019-05-26T03:37:25.476Z,11.43
2019-05-26T03:38:25.431Z,11.50
2019-05-26T03:39:42.660Z,11.52
2019-05-26T03:40:26.417Z,11.50
2019-05-26T03:41:25.400Z,11.54
2019-05-26T03:42:25.405Z,11.51
2019-05-26T03:43:25.374Z,11.52
2019-05-26T03:44:25.362Z,11.50
2019-05-26T03:45:25.375Z,11.50
2019-05-26T03:46:25.340Z,11.52
2019-05-26T03:47:25.357Z,11.48
2019-05-26T03:48:25.319Z,11.48
2019-05-26T03:49:25.371Z,11.50
2019-05-26T03:50:25.299Z,11.50
2019-05-26T03:51:25.313Z,11.50
2019-05-26T03:52:25.279Z,11.48
2019-05-26T03:53:25.276Z,11.55
2019-05-26T03:54:25.266Z,11.51
2019-05-26T03:55:25.247Z,11.57
2019-05-26T03:56:25.235Z,11.52
2019-05-26T03:57:25.242Z,11.63
2019-05-26T03:58:25.213Z,11.66
2019-05-26T03:59:25.218Z,11.65
2019-05-26T04:00:25.185Z,11.65
2019-05-26T04:01:25.175Z,11.62
2019-05-26T04:02:25.168Z,11.54
2019-05-26T04:03:25.167Z,11.51
2019-05-26T04:04:25.183Z,11.57
2019-05-26T04:05:25.132Z,11.68
2019-05-26T04:06:25.118Z,11.62
2019-05-26T04:07:25.107Z,11.63
2019-05-26T04:08:25.102Z,11.63
2019-05-26T04:09:25.103Z,11.66
2019-05-26T04:10:25.095Z,11.69
2019-05-26T04:11:25.066Z,11.70
2019-05-26T04:12:25.068Z,11.72
2019-05-26T04:13:25.043Z,11.69
2019-05-26T04:14:25.040Z,11.81
2019-05-26T04:15:25.037Z,11.81
2019-05-26T04:16:25.026Z,11.75
2019-05-26T04:17:25.002Z,11.80
2019-05-26T04:18:25.005Z,11.87
2019-05-26T04:19:24.972Z,11.83
2019-05-26T04:20:24.970Z,11.78
2019-05-26T04:21:24.960Z,11.86
2019-05-26T04:22:24.941Z,11.84
2019-05-26T04:23:24.986Z,11.84
2019-05-26T04:24:24.929Z,11.86
2019-05-26T04:25:24.906Z,11.88
2019-05-26T04:26:24.898Z,11.81
2019-05-26T04:27:24.885Z,11.90
2019-05-26T04:28:24.875Z,11.81
2019-05-26T04:29:24.887Z,11.88
2019-05-26T04:30:24.854Z,11.86
2019-05-26T04:31:24.846Z,11.86
2019-05-26T04:32:24.828Z,11.84
2019-05-26T04:33:24.818Z,11.94
2019-05-26T04:34:24.827Z,11.86
2019-05-26T04:35:24.806Z,11.94
2019-05-26T04:36:24.786Z,12.00
2019-05-26T04:37:24.776Z,11.97
2019-05-26T04:38:24.770Z,12.03
2019-05-26T04:39:24.779Z,12.09
2019-05-26T04:40:27.660Z,12.09
2019-05-26T04:41:24.750Z,12.04
2019-05-26T04:42:24.719Z,12.07
2019-05-26T04:43:24.722Z,12.15
2019-05-26T04:44:24.704Z,12.12
2019-05-26T04:45:24.687Z,12.18
2019-05-26T04:46:24.682Z,12.15
2019-05-26T04:47:24.683Z,12.24
2019-05-26T04:48:24.651Z,12.17
2019-05-26T04:49:24.673Z,12.25
2019-05-26T04:50:24.626Z,12.36
2019-05-26T04:51:24.615Z,12.29
2019-05-26T04:52:24.607Z,12.36
2019-05-26T04:53:24.596Z,12.37
2019-05-26T04:54:24.583Z,12.46
2019-05-26T04:55:24.608Z,12.42
2019-05-26T04:56:24.559Z,12.45
2019-05-26T04:57:24.601Z,12.47
2019-05-26T04:58:24.552Z,12.49
2019-05-26T04:59:24.563Z,12.47
2019-05-26T05:00:24.521Z,12.43
2019-05-26T05:01:24.506Z,12.64
2019-05-26T05:02:24.508Z,12.55
2019-05-26T05:03:24.503Z,12.54
2019-05-26T05:04:24.470Z,12.61
2019-05-26T05:05:24.470Z,12.62
2019-05-26T05:06:24.453Z,12.68
2019-05-26T05:07:28.097Z,12.67
2019-05-26T05:08:24.456Z,12.68
2019-05-26T05:09:24.429Z,12.79
2019-05-26T05:10:39.225Z,12.78
2019-05-26T05:11:25.468Z,12.85
2019-05-26T05:12:24.386Z,12.86
2019-05-26T05:13:25.115Z,12.97
2019-05-26T05:14:24.372Z,12.98
2019-05-26T05:15:24.347Z,12.93
2019-05-26T05:16:24.337Z,12.98
2019-05-26T05:17:24.365Z,13.00
2019-05-26T05:18:24.319Z,13.12
2019-05-26T05:19:24.314Z,13.08
2019-05-26T05:20:24.290Z,13.11
2019-05-26T05:21:24.281Z,13.18
2019-05-26T05:22:24.269Z,13.13
2019-05-26T05:23:24.300Z,13.23
2019-05-26T05:24:24.248Z,13.25
2019-05-26T05:25:24.255Z,13.16
2019-05-26T05:26:24.263Z,13.20
2019-05-26T05:27:24.231Z,13.30
2019-05-26T05:28:24.201Z,13.42
2019-05-26T05:29:24.187Z,13.37
2019-05-26T05:30:24.299Z,13.39
2019-05-26T05:31:24.186Z,13.41
2019-05-26T05:32:24.157Z,13.46
2019-05-26T05:33:24.183Z,13.49
2019-05-26T05:34:24.137Z,13.46
2019-05-26T05:35:24.155Z,13.41
2019-05-26T05:36:24.114Z,13.52
2019-05-26T05:37:25.331Z,13.42
2019-05-26T05:38:24.090Z,13.31
2019-05-26T05:39:24.111Z,13.35
2019-05-26T05:40:24.166Z,13.41
2019-05-26T05:41:24.058Z,13.46
2019-05-26T05:42:24.064Z,13.39
2019-05-26T05:43:24.048Z,13.44
2019-05-26T05:44:24.036Z,13.44
2019-05-26T05:45:24.010Z,13.53
2019-05-26T05:46:24.001Z,13.56
2019-05-26T05:47:23.993Z,13.53
2019-05-26T05:48:23.987Z,13.62
2019-05-26T05:49:24.001Z,13.59
2019-05-26T05:50:23.957Z,13.59
2019-05-26T05:51:23.951Z,13.63
2019-05-26T05:52:23.950Z,13.63
2019-05-26T05:53:23.920Z,13.71
2019-05-26T05:54:23.915Z,13.70
2019-05-26T05:55:23.943Z,13.81
2019-05-26T05:56:23.889Z,13.78
2019-05-26T05:57:23.881Z,13.81
2019-05-26T05:58:23.870Z,13.77
2019-05-26T05:59:23.863Z,13.81
2019-05-26T06:00:24.014Z,13.93
2019-05-26T06:01:23.835Z,14.03
2019-05-26T06:02:23.826Z,14.10
2019-05-26T06:03:23.828Z,14.05
2019-05-26T06:04:23.801Z,14.08
2019-05-26T06:05:23.811Z,14.17
2019-05-26T06:06:23.794Z,14.17
2019-05-26T06:07:23.767Z,14.14
2019-05-26T06:08:23.760Z,14.14
2019-05-26T06:09:23.747Z,14.22
2019-05-26T06:10:23.733Z,14.07
2019-05-26T06:11:23.751Z,14.20
2019-05-26T06:12:23.707Z,14.26
2019-05-26T06:13:23.700Z,14.26
2019-05-26T06:14:23.779Z,14.23
2019-05-26T06:15:23.675Z,14.28
2019-05-26T06:16:23.692Z,14.30
2019-05-26T06:17:23.728Z,14.40
2019-05-26T06:18:23.649Z,14.30
2019-05-26T06:19:23.630Z,14.33
2019-05-26T06:20:23.646Z,14.40
2019-05-26T06:21:23.620Z,14.35
2019-05-26T06:22:23.615Z,14.30
2019-05-26T06:23:23.615Z,14.22
2019-05-26T06:24:23.577Z,14.23
2019-05-26T06:25:23.567Z,14.28
2019-05-26T06:26:23.562Z,14.23
2019-05-26T06:27:23.543Z,14.30
2019-05-26T06:28:23.634Z,14.32
2019-05-26T06:29:23.527Z,14.36
2019-05-26T06:30:23.548Z,14.35
2019-05-26T06:31:23.507Z,14.41
2019-05-26T06:32:23.503Z,14.53
2019-05-26T06:33:23.494Z,14.55
2019-05-26T06:34:23.498Z,14.65
2019-05-26T06:35:23.459Z,14.72
2019-05-26T06:36:23.447Z,14.73
2019-05-26T06:37:23.467Z,14.82
2019-05-26T06:38:23.427Z,14.85
2019-05-26T06:39:23.413Z,14.89
2019-05-26T06:40:23.413Z,15.02
2019-05-26T06:41:33.079Z,15.03
2019-05-26T06:42:24.387Z,15.02
2019-05-26T06:43:23.383Z,15.02
2019-05-26T06:44:23.358Z,15.04
2019-05-26T06:45:23.362Z,14.92
2019-05-26T06:46:23.334Z,15.00
2019-05-26T06:47:23.328Z,15.09
2019-05-26T06:48:26.570Z,15.02
2019-05-26T06:49:23.327Z,14.99
2019-05-26T06:50:23.312Z,14.99
2019-05-26T06:51:23.283Z,14.99
2019-05-26T06:52:23.274Z,14.84
2019-05-26T06:53:23.256Z,14.91
2019-05-26T06:54:23.252Z,14.84
2019-05-26T06:55:23.236Z,14.91
2019-05-26T06:56:23.254Z,14.89
2019-05-26T06:57:23.242Z,14.92
2019-05-26T06:58:23.205Z,14.97
2019-05-26T06:59:23.230Z,14.99
2019-05-26T07:00:23.182Z,14.96
2019-05-26T07:01:23.181Z,14.97
2019-05-26T07:02:23.193Z,15.07
2019-05-26T07:03:23.158Z,15.02
2019-05-26T07:04:23.143Z,15.14
2019-05-26T07:05:23.124Z,15.11
2019-05-26T07:06:23.115Z,15.18
2019-05-26T07:07:23.103Z,15.21
2019-05-26T07:08:23.117Z,15.21
2019-05-26T07:09:23.096Z,15.15
2019-05-26T07:10:23.075Z,15.18
2019-05-26T07:11:23.062Z,15.27
2019-05-26T07:12:23.048Z,15.28
2019-05-26T07:13:23.038Z,15.33
2019-05-26T07:14:23.030Z,15.33
2019-05-26T07:15:23.041Z,15.43
2019-05-26T07:16:36.958Z,15.44
2019-05-26T07:17:23.995Z,15.51
2019-05-26T07:18:22.985Z,15.57
2019-05-26T07:19:22.974Z,15.55
2019-05-26T07:20:22.971Z,15.59
2019-05-26T07:21:22.948Z,15.49
2019-05-26T07:22:22.940Z,15.54
2019-05-26T07:23:22.949Z,15.62
2019-05-26T07:24:22.914Z,15.51
2019-05-26T07:25:22.919Z,15.57
2019-05-26T07:26:22.909Z,15.62
2019-05-26T07:27:22.883Z,15.64
2019-05-26T07:28:22.885Z,15.70
2019-05-26T07:29:22.895Z,15.75
2019-05-26T07:30:23.607Z,15.79
2019-05-26T07:31:22.842Z,15.82
2019-05-26T07:32:22.844Z,15.73
2019-05-26T07:33:22.851Z,15.75
2019-05-26T07:34:22.807Z,15.80
2019-05-26T07:35:22.797Z,15.76
2019-05-26T07:36:22.787Z,15.82
2019-05-26T07:37:22.810Z,15.91
2019-05-26T07:38:22.773Z,15.86
2019-05-26T07:39:22.752Z,15.95
2019-05-26T07:40:22.758Z,16.08
2019-05-26T07:41:22.726Z,16.13
2019-05-26T07:42:22.715Z,16.12
2019-05-26T07:43:22.707Z,16.20
2019-05-26T07:44:22.722Z,16.13
2019-05-26T07:45:22.684Z,16.26
2019-05-26T07:46:22.683Z,16.39
2019-05-26T07:47:22.664Z,16.41
2019-05-26T07:48:22.652Z,16.50
2019-05-26T07:49:22.639Z,16.41
2019-05-26T07:50:22.650Z,16.50
2019-05-26T07:51:22.616Z,16.49
2019-05-26T07:52:22.608Z,16.38
2019-05-26T07:53:22.656Z,16.54
2019-05-26T07:54:25.591Z,16.54
2019-05-26T07:55:22.569Z,16.43
2019-05-26T07:56:22.593Z,16.49
2019-05-26T07:57:22.550Z,16.53
2019-05-26T07:58:22.547Z,16.53
2019-05-26T07:59:22.550Z,16.51
2019-05-26T08:00:22.553Z,16.57
2019-05-26T08:01:24.505Z,16.54
2019-05-26T08:02:22.495Z,16.58
2019-05-26T08:03:22.514Z,16.51
2019-05-26T08:04:22.491Z,16.64
2019-05-26T08:05:22.466Z,16.64
2019-05-26T08:06:22.449Z,16.65
2019-05-26T08:07:23.288Z,16.66
2019-05-26T08:08:22.456Z,16.71
2019-05-26T08:09:22.449Z,16.74
2019-05-26T08:10:23.273Z,16.69
2019-05-26T08:11:22.394Z,16.83
2019-05-26T08:12:26.987Z,16.84
2019-05-26T08:13:23.378Z,16.89
2019-05-26T08:14:22.382Z,17.01
2019-05-26T08:15:22.381Z,17.02
2019-05-26T08:16:22.343Z,17.06
2019-05-26T08:17:22.330Z,17.06
2019-05-26T08:18:22.320Z,17.05
2019-05-26T08:19:22.308Z,17.05
2019-05-26T08:20:22.320Z,17.12
2019-05-26T08:21:22.291Z,17.01
2019-05-26T08:22:22.281Z,17.04
2019-05-26T08:23:22.291Z,17.04
2019-05-26T08:24:22.255Z,17.05
2019-05-26T08:25:22.258Z,17.04
2019-05-26T08:26:22.236Z,17.05
2019-05-26T08:27:22.234Z,16.99
2019-05-26T08:28:22.207Z,17.09
2019-05-26T08:29:22.195Z,17.24
2019-05-26T08:30:22.198Z,17.19
2019-05-26T08:31:22.201Z,17.23
2019-05-26T08:32:22.185Z,17.36
2019-05-26T08:33:22.154Z,17.51
2019-05-26T08:34:22.139Z,17.64
2019-05-26T08:35:22.146Z,17.70
2019-05-26T08:36:22.127Z,17.82
2019-05-26T08:37:22.134Z,17.95
2019-05-26T08:38:22.111Z,17.95
2019-05-26T08:39:22.120Z,18.13
2019-05-26T08:40:22.078Z,18.03
2019-05-26T08:41:22.066Z,18.01
2019-05-26T08:42:27.357Z,17.90
2019-05-26T08:43:23.048Z,17.83
2019-05-26T08:44:22.032Z,17.79
2019-05-26T08:45:22.732Z,17.74
2019-05-26T08:46:22.027Z,17.67
2019-05-26T08:47:22.002Z,17.60
2019-05-26T08:48:22.026Z,17.68
2019-05-26T08:49:21.973Z,17.56
2019-05-26T08:50:29.520Z,17.63
2019-05-26T08:51:21.954Z,17.71
2019-05-26T08:52:21.943Z,17.68
2019-05-26T08:53:21.944Z,17.76
2019-05-26T08:54:21.946Z,17.74
2019-05-26T08:55:21.916Z,17.86
2019-05-26T08:56:21.919Z,17.86
2019-05-26T08:57:21.885Z,18.04
2019-05-26T08:58:21.909Z,18.05
2019-05-26T08:59:21.887Z,18.22
2019-05-26T09:00:21.857Z,18.20
2019-05-26T09:01:21.844Z,18.20
2019-05-26T09:02:21.831Z,18.22
2019-05-26T09:03:21.847Z,18.29
2019-05-26T09:04:21.805Z,18.38
2019-05-26T09:05:21.813Z,18.43
2019-05-26T09:06:21.785Z,18.43
2019-05-26T09:07:21.777Z,18.53
2019-05-26T09:08:21.767Z,18.53
2019-05-26T09:09:21.751Z,18.58
2019-05-26T09:10:21.773Z,18.56
2019-05-26T09:11:21.736Z,18.60
2019-05-26T09:12:21.719Z,18.59
2019-05-26T09:13:21.720Z,18.60
2019-05-26T09:14:25.279Z,18.63
2019-05-26T09:15:21.689Z,18.70
2019-05-26T09:16:21.687Z,18.81
2019-05-26T09:17:21.681Z,18.90
2019-05-26T09:18:21.655Z,18.95
2019-05-26T09:19:21.639Z,19.02
2019-05-26T09:20:21.638Z,19.00
2019-05-26T09:21:21.621Z,18.89
2019-05-26T09:22:21.629Z,18.93
2019-05-26T09:23:21.609Z,18.95
2019-05-26T09:24:21.586Z,19.02
2019-05-26T09:25:21.576Z,19.02
2019-05-26T09:26:21.577Z,19.15
2019-05-26T09:27:21.572Z,19.14
2019-05-26T09:28:21.554Z,19.22
2019-05-26T09:29:21.535Z,19.33
2019-05-26T09:30:21.570Z,19.37
2019-05-26T09:31:21.510Z,19.34
2019-05-26T09:32:21.500Z,19.33
2019-05-26T09:33:21.521Z,19.29
2019-05-26T09:34:21.579Z,19.21
2019-05-26T09:35:21.485Z,19.26
2019-05-26T09:36:21.461Z,19.27
2019-05-26T09:37:21.446Z,19.37
2019-05-26T09:38:21.453Z,19.34
2019-05-26T09:39:21.461Z,19.41
2019-05-26T09:40:21.412Z,19.37
2019-05-26T09:41:21.402Z,19.37
2019-05-26T09:42:22.509Z,19.37
2019-05-26T09:43:21.376Z,19.37
2019-05-26T09:44:21.369Z,19.29
2019-05-26T09:45:21.406Z,19.21
2019-05-26T09:46:21.348Z,19.29
2019-05-26T09:47:21.347Z,19.15
2019-05-26T09:48:21.322Z,19.39
2019-05-26T09:49:21.314Z,19.56
2019-05-26T09:50:21.322Z,19.81
2019-05-26T09:51:21.293Z,20.00
2019-05-26T09:52:21.285Z,20.11
2019-05-26T09:53:21.282Z,20.37
2019-05-26T09:54:21.261Z,20.51
2019-05-26T09:55:21.245Z,20.70
2019-05-26T09:56:21.259Z,20.99
2019-05-26T09:57:21.243Z,21.00
2019-05-26T09:58:21.226Z,21.11
2019-05-26T09:59:21.217Z,21.22
2019-05-26T10:00:21.189Z,21.37
2019-05-26T10:01:21.226Z,21.46
2019-05-26T10:02:21.182Z,21.29
2019-05-26T10:03:21.161Z,21.15
2019-05-26T10:04:21.149Z,21.09
2019-05-26T10:05:21.134Z,20.97
2019-05-26T10:06:21.125Z,20.80
2019-05-26T10:07:21.128Z,20.81
2019-05-26T10:08:21.109Z,20.95
2019-05-26T10:09:21.095Z,21.11
2019-05-26T10:10:21.080Z,21.20
2019-05-26T10:11:21.071Z,20.95
2019-05-26T10:12:21.068Z,20.80
2019-05-26T10:13:31.396Z,20.82
2019-05-26T10:14:22.037Z,20.62
2019-05-26T10:15:21.034Z,20.43
2019-05-26T10:16:21.017Z,20.41
2019-05-26T10:17:23.211Z,20.50
2019-05-26T10:18:21.044Z,20.39
2019-05-26T10:19:21.002Z,20.41
2019-05-26T10:20:20.971Z,20.44
2019-05-26T10:21:20.993Z,20.26
2019-05-26T10:22:20.952Z,20.21
2019-05-26T10:23:20.959Z,20.22
2019-05-26T10:24:20.954Z,20.24
2019-05-26T10:25:20.931Z,20.18
2019-05-26T10:26:20.921Z,20.06
2019-05-26T10:27:20.953Z,19.94
2019-05-26T10:28:20.910Z,19.99
2019-05-26T10:29:20.889Z,20.04
2019-05-26T10:30:20.889Z,20.10
2019-05-26T10:31:20.863Z,20.06
2019-05-26T10:32:20.870Z,20.18
2019-05-26T10:33:20.842Z,20.16
2019-05-26T10:34:20.854Z,20.18
2019-05-26T10:35:20.823Z,20.28
2019-05-26T10:36:20.800Z,20.40
2019-05-26T10:37:20.799Z,20.50
2019-05-26T10:38:20.782Z,20.56
2019-05-26T10:39:20.772Z,20.72
2019-05-26T10:40:20.774Z,20.84
2019-05-26T10:41:20.758Z,20.81
2019-05-26T10:42:20.734Z,20.90
2019-05-26T10:43:20.730Z,20.96
2019-05-26T10:44:20.711Z,20.99
2019-05-26T10:45:20.704Z,20.97
2019-05-26T10:46:20.689Z,20.93
2019-05-26T10:47:20.715Z,21.03
2019-05-26T10:48:20.667Z,20.90
2019-05-26T10:49:20.666Z,20.87
2019-05-26T10:50:20.642Z,20.74
2019-05-26T10:51:20.643Z,20.65
2019-05-26T10:52:20.629Z,20.69
2019-05-26T10:53:20.623Z,20.66
2019-05-26T10:54:20.612Z,20.58
2019-05-26T10:55:20.590Z,20.66
2019-05-26T10:56:20.583Z,20.52
2019-05-26T10:57:20.586Z,20.39
2019-05-26T10:58:20.556Z,20.48
2019-05-26T10:59:20.559Z,20.36
2019-05-26T11:00:20.549Z,20.47
2019-05-26T11:01:20.525Z,20.39
2019-05-26T11:02:20.531Z,20.29
2019-05-26T11:03:20.516Z,20.29
2019-05-26T11:04:20.491Z,20.29
2019-05-26T11:05:20.493Z,20.29
2019-05-26T11:06:20.474Z,20.37
2019-05-26T11:07:20.464Z,20.36
2019-05-26T11:08:20.469Z,20.25
2019-05-26T11:09:20.450Z,20.26
2019-05-26T11:10:20.436Z,20.34
2019-05-26T11:11:20.418Z,20.19
2019-05-26T11:12:20.412Z,20.29
2019-05-26T11:13:20.394Z,20.32
2019-05-26T11:14:20.392Z,20.31
2019-05-26T11:15:20.371Z,20.31
2019-05-26T11:16:20.366Z,20.40
2019-05-26T11:17:20.405Z,20.48
2019-05-26T11:18:20.350Z,20.51
2019-05-26T11:19:20.330Z,20.62
2019-05-26T11:20:20.333Z,20.60
2019-05-26T11:21:20.307Z,20.59
2019-05-26T11:22:20.298Z,20.58
2019-05-26T11:23:20.307Z,20.62
2019-05-26T11:24:20.286Z,20.60
2019-05-26T11:25:20.267Z,20.48
2019-05-26T11:26:20.258Z,20.47
2019-05-26T11:27:20.242Z,20.50
2019-05-26T11:28:20.243Z,20.58
2019-05-26T11:29:20.230Z,20.56
2019-05-26T11:30:20.209Z,20.58
2019-05-26T11:31:20.215Z,20.72
2019-05-26T11:32:20.185Z,20.88
2019-05-26T11:33:20.235Z,20.87
2019-05-26T11:34:20.161Z,21.06
2019-05-26T11:35:20.214Z,21.00
2019-05-26T11:36:20.159Z,21.03
2019-05-26T11:37:20.166Z,21.21
2019-05-26T11:38:20.119Z,21.25
2019-05-26T11:39:20.152Z,21.36
2019-05-26T11:40:20.096Z,21.40
2019-05-26T11:41:20.097Z,21.37
2019-05-26T11:42:20.078Z,21.42
2019-05-26T11:43:20.075Z,21.46
2019-05-26T11:44:20.053Z,21.48
2019-05-26T11:45:20.041Z,21.54
2019-05-26T11:46:20.044Z,21.52
2019-05-26T11:47:20.021Z,21.60
2019-05-26T11:48:20.010Z,21.61
2019-05-26T11:49:20.015Z,21.55
2019-05-26T11:50:20.108Z,21.58
2019-05-26T11:51:19.999Z,21.51
2019-05-26T11:52:20.421Z,21.51
2019-05-26T11:53:19.956Z,21.55
2019-05-26T11:54:19.956Z,21.50
2019-05-26T11:55:19.932Z,21.64
2019-05-26T11:56:19.942Z,21.70
2019-05-26T11:57:19.923Z,21.66
2019-05-26T11:58:19.905Z,21.61
2019-05-26T11:59:19.893Z,21.54
2019-05-26T12:00:19.887Z,21.45
2019-05-26T12:01:22.846Z,21.33
2019-05-26T12:02:19.870Z,21.37
2019-05-26T12:03:19.864Z,21.36
2019-05-26T12:04:19.833Z,21.33
2019-05-26T12:05:19.823Z,21.36
2019-05-26T12:06:19.810Z,21.43
2019-05-26T12:07:19.865Z,21.40
2019-05-26T12:08:19.789Z,21.45
2019-05-26T12:09:19.802Z,21.45
2019-05-26T12:10:19.769Z,21.50
2019-05-26T12:11:19.761Z,21.54
2019-05-26T12:12:19.751Z,21.61
2019-05-26T12:13:19.801Z,21.66
2019-05-26T12:14:33.749Z,21.58
2019-05-26T12:15:20.720Z,21.62
2019-05-26T12:16:19.713Z,21.73
2019-05-26T12:17:19.694Z,21.73
2019-05-26T12:18:19.847Z,21.72
2019-05-26T12:19:19.685Z,21.88
2019-05-26T12:20:19.710Z,21.85
2019-05-26T12:21:19.727Z,21.88
2019-05-26T12:22:19.636Z,21.80
2019-05-26T12:23:19.653Z,21.72
2019-05-26T12:24:19.625Z,21.70
2019-05-26T12:25:19.616Z,21.60
2019-05-26T12:26:19.604Z,21.73
2019-05-26T12:27:19.582Z,21.82
2019-05-26T12:28:19.583Z,21.89
2019-05-26T12:29:19.578Z,21.79
2019-05-26T12:30:19.549Z,21.82
2019-05-26T12:31:19.607Z,21.69
2019-05-26T12:32:19.536Z,21.75
2019-05-26T12:33:19.516Z,21.69
2019-05-26T12:34:19.528Z,21.82
2019-05-26T12:35:19.498Z,21.89
2019-05-26T12:36:19.489Z,21.76
2019-05-26T12:37:19.482Z,21.69
2019-05-26T12:38:19.578Z,21.83
2019-05-26T12:39:19.473Z,21.83
2019-05-26T12:40:19.445Z,21.72
2019-05-26T12:41:19.528Z,21.60
2019-05-26T12:42:19.460Z,21.50
2019-05-26T12:43:19.406Z,21.46
2019-05-26T12:44:19.410Z,21.57
2019-05-26T12:45:19.541Z,21.48
2019-05-26T12:46:19.377Z,21.48
2019-05-26T12:47:19.361Z,21.51
2019-05-26T12:48:19.358Z,21.54
2019-05-26T12:49:19.355Z,21.64
2019-05-26T12:50:19.335Z,21.43
2019-05-26T12:51:19.355Z,21.43
2019-05-26T12:52:19.317Z,21.33